Terminal Aerodrome Forecast
Issued by NWS

Home | Current Version | Previous Version | Text Only | Print | Product List | Glossary On
Versions: 1 2 3 4 5 6 7 8 9 10 11 12
182
FTUS44 KEPZ 061137
TAFLRU
TAF
KLRU 061137Z 0612/0712 23009KT P6SM SCT250
     FM061700 22013G23KT P6SM FEW100
     FM062100 24018G28KT P6SM FEW100
     FM070300 24012G20KT P6SM SCT100=

USA.gov is the U.S. government's official web portal to all federal, state and local government web resources and services.